KJFZ

Tazewell County Airport

Richlands, Virginia, USA
METAR KJFZ 211515Z AUTO 34007KT 290V010 10SM SCT021 02/M04 A3027 RMK AO2 T00151042
Observed Flight Rules
Oct-21 @ 15:15 UTC (6 minutes ago) Visual Flight Rules
Wind Visibility Clouds
340° at 7 knots 10 miles
  • Scattered at 2,100' AGL
Temperatures Readings
Current 2°C / 36°F
Dewpoint -4°C / 25°F
Humidity 65%
Altimeter 30.27" Hg
Pressure 1025 hPa
Elevation 809
METAR KJFZ 211515Z AUTO 34007KT 290V010 10SM SCT021 02/M04 A3027 RMK AO2 T00151042
Observed Flight Rules
Oct-21 @ 15:15 UTC
(6 minutes ago)
VFR
Wind Visibility
340° at 7 knots 10 miles
Clouds
  • Scattered at 2,100' AGL
Temperature Dewpoint
2°C / 36°F -4°C / 25°F
Humidity Altimeter Pressure
65% 30.27" Hg 1025 hPa